Springersville, Indiana
Current Conditions -  °F | °C
As of 12:55 AM on Thursday 27 Nov 2014 (Local Time) from KI67 Reporting Station
Overcast Overcast  
Wind Chill: -1°   Ceiling: 12000
Heat Index: -1°   Visibility: 10mi
Dew Point: -4°   Wind: 0mph
Humidity: 80%   Direction: NA
Pressure: 30.08"   Gusts: NA
Location:  39.6926°N, 84.9821°W
Report Text: KI67 270555Z AUTO 00000KT 10SM OVC120 M01/M04 A3008 RMK AO1
Loading
Personal Weather Stations






























Interactive Weather Map New forecast layout! Learn more

10-Day Weather Forecast

Advertisements
Track Severe Weather on mobile